sensor_id;sensor_type;location;lat;lon;timestamp;P1;durP1;ratioP1;P2;durP2;ratioP2
54923;SDS011;40825;52.270;20.984;2023-08-06T00:00:15;23.00;;;9.80;;
54923;SDS011;40825;52.270;20.984;2023-08-06T00:03:00;26.00;;;12.30;;
54923;SDS011;40825;52.270;20.984;2023-08-06T00:05:26;22.60;;;10.80;;
54923;SDS011;40825;52.270;20.984;2023-08-06T00:07:51;24.30;;;10.60;;
54923;SDS011;40825;52.270;20.984;2023-08-06T00:10:17;24.70;;;10.50;;
54923;SDS011;40825;52.270;20.984;2023-08-06T00:12:43;23.30;;;11.20;;
54923;SDS011;40825;52.270;20.984;2023-08-06T00:15:09;26.70;;;11.30;;
54923;SDS011;40825;52.270;20.984;2023-08-06T00:17:36;24.00;;;12.30;;
54923;SDS011;40825;52.270;20.984;2023-08-06T00:20:02;21.90;;;10.80;;
54923;SDS011;40825;52.270;20.984;2023-08-06T00:22:31;23.40;;;10.30;;
54923;SDS011;40825;52.270;20.984;2023-08-06T00:24:57;22.20;;;10.50;;
54923;SDS011;40825;52.270;20.984;2023-08-06T00:27:23;24.20;;;10.60;;
54923;SDS011;40825;52.270;20.984;2023-08-06T00:29:48;22.70;;;11.30;;
54923;SDS011;40825;52.270;20.984;2023-08-06T00:32:14;20.70;;;11.60;;
54923;SDS011;40825;52.270;20.984;2023-08-06T00:34:39;21.60;;;11.00;;
54923;SDS011;40825;52.270;20.984;2023-08-06T00:37:05;20.30;;;11.40;;
54923;SDS011;40825;52.270;20.984;2023-08-06T00:39:30;21.80;;;10.60;;
54923;SDS011;40825;52.270;20.984;2023-08-06T00:41:55;22.60;;;13.00;;
54923;SDS011;40825;52.270;20.984;2023-08-06T00:44:21;23.90;;;13.70;;
54923;SDS011;40825;52.270;20.984;2023-08-06T00:46:46;17.90;;;10.40;;
54923;SDS011;40825;52.270;20.984;2023-08-06T00:49:12;19.90;;;10.50;;
54923;SDS011;40825;52.270;20.984;2023-08-06T00:51:38;19.60;;;11.10;;
54923;SDS011;40825;52.270;20.984;2023-08-06T00:54:03;21.20;;;11.10;;
54923;SDS011;40825;52.270;20.984;2023-08-06T00:56:29;20.10;;;11.50;;
54923;SDS011;40825;52.270;20.984;2023-08-06T00:58:54;16.00;;;10.20;;
54923;SDS011;40825;52.270;20.984;2023-08-06T01:02:36;15.10;;;9.30;;
54923;SDS011;40825;52.270;20.984;2023-08-06T01:05:02;14.60;;;9.80;;
54923;SDS011;40825;52.270;20.984;2023-08-06T01:10:22;15.40;;;9.90;;
54923;SDS011;40825;52.270;20.984;2023-08-06T01:15:41;16.60;;;10.10;;
54923;SDS011;40825;52.270;20.984;2023-08-06T01:18:11;15.90;;;10.30;;
54923;SDS011;40825;52.270;20.984;2023-08-06T01:20:37;14.70;;;8.40;;
54923;SDS011;40825;52.270;20.984;2023-08-06T01:23:02;14.00;;;8.60;;
54923;SDS011;40825;52.270;20.984;2023-08-06T01:25:35;14.90;;;9.10;;
54923;SDS011;40825;52.270;20.984;2023-08-06T01:28:18;13.90;;;9.50;;
54923;SDS011;40825;52.270;20.984;2023-08-06T01:30:59;13.90;;;9.30;;
54923;SDS011;40825;52.270;20.984;2023-08-06T01:33:28;16.10;;;9.50;;
54923;SDS011;40825;52.270;20.984;2023-08-06T01:35:57;14.90;;;9.00;;
54923;SDS011;40825;52.270;20.984;2023-08-06T01:38:24;14.00;;;9.50;;
54923;SDS011;40825;52.270;20.984;2023-08-06T01:40:50;14.10;;;8.90;;
54923;SDS011;40825;52.270;20.984;2023-08-06T01:43:15;14.50;;;9.00;;
54923;SDS011;40825;52.270;20.984;2023-08-06T01:45:41;13.00;;;9.10;;
54923;SDS011;40825;52.270;20.984;2023-08-06T01:48:06;14.40;;;8.40;;
54923;SDS011;40825;52.270;20.984;2023-08-06T01:50:32;14.50;;;8.60;;
54923;SDS011;40825;52.270;20.984;2023-08-06T01:52:57;14.40;;;8.90;;
54923;SDS011;40825;52.270;20.984;2023-08-06T01:55:22;12.50;;;8.20;;
54923;SDS011;40825;52.270;20.984;2023-08-06T01:57:48;13.70;;;8.50;;
54923;SDS011;40825;52.270;20.984;2023-08-06T02:00:13;14.70;;;9.70;;
54923;SDS011;40825;52.270;20.984;2023-08-06T02:02:39;13.90;;;8.90;;
54923;SDS011;40825;52.270;20.984;2023-08-06T02:05:06;14.60;;;9.10;;
54923;SDS011;40825;52.270;20.984;2023-08-06T02:07:31;13.60;;;8.80;;
54923;SDS011;40825;52.270;20.984;2023-08-06T02:09:57;13.40;;;8.40;;
54923;SDS011;40825;52.270;20.984;2023-08-06T02:12:22;13.20;;;7.90;;
54923;SDS011;40825;52.270;20.984;2023-08-06T02:14:48;12.70;;;7.90;;
54923;SDS011;40825;52.270;20.984;2023-08-06T02:17:13;12.90;;;7.70;;
54923;SDS011;40825;52.270;20.984;2023-08-06T02:19:39;12.40;;;7.80;;
54923;SDS011;40825;52.270;20.984;2023-08-06T02:22:04;13.00;;;8.10;;
54923;SDS011;40825;52.270;20.984;2023-08-06T02:24:30;12.70;;;8.00;;
54923;SDS011;40825;52.270;20.984;2023-08-06T02:26:55;15.10;;;8.10;;
54923;SDS011;40825;52.270;20.984;2023-08-06T02:29:21;12.80;;;8.20;;
54923;SDS011;40825;52.270;20.984;2023-08-06T02:31:47;13.70;;;8.30;;
54923;SDS011;40825;52.270;20.984;2023-08-06T02:34:12;12.90;;;8.10;;
54923;SDS011;40825;52.270;20.984;2023-08-06T02:36:37;13.20;;;8.30;;
54923;SDS011;40825;52.270;20.984;2023-08-06T02:39:03;12.20;;;7.40;;
54923;SDS011;40825;52.270;20.984;2023-08-06T02:41:28;13.90;;;8.20;;
54923;SDS011;40825;52.270;20.984;2023-08-06T02:43:54;13.50;;;7.70;;
54923;SDS011;40825;52.270;20.984;2023-08-06T02:46:19;12.90;;;7.50;;
54923;SDS011;40825;52.270;20.984;2023-08-06T02:48:45;12.90;;;8.20;;
54923;SDS011;40825;52.270;20.984;2023-08-06T02:51:10;11.30;;;8.00;;
54923;SDS011;40825;52.270;20.984;2023-08-06T02:53:35;12.70;;;8.00;;
54923;SDS011;40825;52.270;20.984;2023-08-06T02:56:01;13.90;;;8.00;;
54923;SDS011;40825;52.270;20.984;2023-08-06T02:58:27;14.50;;;8.10;;
54923;SDS011;40825;52.270;20.984;2023-08-06T03:01:02;14.00;;;8.40;;
54923;SDS011;40825;52.270;20.984;2023-08-06T03:03:30;16.70;;;8.50;;
54923;SDS011;40825;52.270;20.984;2023-08-06T03:05:56;14.20;;;8.60;;
54923;SDS011;40825;52.270;20.984;2023-08-06T03:08:23;14.50;;;8.60;;
54923;SDS011;40825;52.270;20.984;2023-08-06T03:10:49;16.70;;;9.50;;
54923;SDS011;40825;52.270;20.984;2023-08-06T03:13:15;13.40;;;8.30;;
54923;SDS011;40825;52.270;20.984;2023-08-06T03:15:57;15.60;;;9.00;;
54923;SDS011;40825;52.270;20.984;2023-08-06T03:18:23;13.90;;;8.60;;
54923;SDS011;40825;52.270;20.984;2023-08-06T03:20:51;15.10;;;9.10;;
54923;SDS011;40825;52.270;20.984;2023-08-06T03:23:17;15.40;;;9.70;;
54923;SDS011;40825;52.270;20.984;2023-08-06T03:25:43;16.90;;;10.70;;
54923;SDS011;40825;52.270;20.984;2023-08-06T03:28:09;15.30;;;8.70;;
54923;SDS011;40825;52.270;20.984;2023-08-06T03:30:34;15.40;;;9.50;;
54923;SDS011;40825;52.270;20.984;2023-08-06T03:33:00;17.40;;;10.10;;
54923;SDS011;40825;52.270;20.984;2023-08-06T03:35:25;17.20;;;10.00;;
54923;SDS011;40825;52.270;20.984;2023-08-06T03:37:51;14.70;;;9.80;;
54923;SDS011;40825;52.270;20.984;2023-08-06T03:40:16;17.90;;;9.60;;
54923;SDS011;40825;52.270;20.984;2023-08-06T03:42:42;17.40;;;10.80;;
54923;SDS011;40825;52.270;20.984;2023-08-06T03:45:07;16.50;;;10.30;;
54923;SDS011;40825;52.270;20.984;2023-08-06T03:47:33;18.50;;;11.40;;
54923;SDS011;40825;52.270;20.984;2023-08-06T03:49:59;16.40;;;10.70;;
54923;SDS011;40825;52.270;20.984;2023-08-06T03:52:24;19.80;;;11.20;;
54923;SDS011;40825;52.270;20.984;2023-08-06T03:54:50;21.30;;;13.10;;
54923;SDS011;40825;52.270;20.984;2023-08-06T03:57:15;17.10;;;11.10;;
54923;SDS011;40825;52.270;20.984;2023-08-06T03:59:41;19.00;;;11.40;;
54923;SDS011;40825;52.270;20.984;2023-08-06T04:02:06;19.50;;;11.60;;
54923;SDS011;40825;52.270;20.984;2023-08-06T04:04:32;17.90;;;11.80;;
54923;SDS011;40825;52.270;20.984;2023-08-06T04:06:57;20.00;;;12.00;;
54923;SDS011;40825;52.270;20.984;2023-08-06T04:09:23;20.70;;;12.60;;
54923;SDS011;40825;52.270;20.984;2023-08-06T04:11:48;22.60;;;12.70;;
54923;SDS011;40825;52.270;20.984;2023-08-06T04:14:13;18.80;;;12.10;;
54923;SDS011;40825;52.270;20.984;2023-08-06T04:16:39;20.00;;;13.80;;
54923;SDS011;40825;52.270;20.984;2023-08-06T04:19:04;22.40;;;13.40;;
54923;SDS011;40825;52.270;20.984;2023-08-06T04:21:30;20.30;;;12.60;;
54923;SDS011;40825;52.270;20.984;2023-08-06T04:23:56;21.40;;;13.20;;
54923;SDS011;40825;52.270;20.984;2023-08-06T04:26:21;19.90;;;13.40;;
54923;SDS011;40825;52.270;20.984;2023-08-06T04:28:47;23.00;;;13.80;;
54923;SDS011;40825;52.270;20.984;2023-08-06T04:31:14;20.70;;;13.00;;
54923;SDS011;40825;52.270;20.984;2023-08-06T04:33:39;23.50;;;14.30;;
54923;SDS011;40825;52.270;20.984;2023-08-06T04:36:05;20.00;;;13.90;;
54923;SDS011;40825;52.270;20.984;2023-08-06T04:38:31;23.70;;;14.30;;
54923;SDS011;40825;52.270;20.984;2023-08-06T04:40:57;23.00;;;14.50;;
54923;SDS011;40825;52.270;20.984;2023-08-06T04:43:23;23.80;;;14.70;;
54923;SDS011;40825;52.270;20.984;2023-08-06T04:45:49;23.70;;;15.30;;
54923;SDS011;40825;52.270;20.984;2023-08-06T04:48:16;23.40;;;15.10;;
54923;SDS011;40825;52.270;20.984;2023-08-06T04:50:43;21.70;;;14.00;;
54923;SDS011;40825;52.270;20.984;2023-08-06T04:53:09;20.60;;;14.60;;
54923;SDS011;40825;52.270;20.984;2023-08-06T04:55:35;24.40;;;15.40;;
54923;SDS011;40825;52.270;20.984;2023-08-06T04:58:00;22.50;;;14.80;;
54923;SDS011;40825;52.270;20.984;2023-08-06T05:00:26;22.00;;;15.20;;
54923;SDS011;40825;52.270;20.984;2023-08-06T05:02:51;21.90;;;14.40;;
54923;SDS011;40825;52.270;20.984;2023-08-06T05:05:16;23.10;;;14.50;;
54923;SDS011;40825;52.270;20.984;2023-08-06T05:07:42;22.20;;;14.20;;
54923;SDS011;40825;52.270;20.984;2023-08-06T05:10:08;20.00;;;13.80;;
54923;SDS011;40825;52.270;20.984;2023-08-06T05:12:33;19.00;;;13.20;;
54923;SDS011;40825;52.270;20.984;2023-08-06T05:14:59;20.30;;;12.70;;
54923;SDS011;40825;52.270;20.984;2023-08-06T05:17:24;19.40;;;14.20;;
54923;SDS011;40825;52.270;20.984;2023-08-06T05:19:49;19.70;;;13.10;;
54923;SDS011;40825;52.270;20.984;2023-08-06T05:22:15;20.00;;;13.90;;
54923;SDS011;40825;52.270;20.984;2023-08-06T05:24:41;17.20;;;12.20;;
54923;SDS011;40825;52.270;20.984;2023-08-06T05:27:06;22.10;;;13.70;;
54923;SDS011;40825;52.270;20.984;2023-08-06T05:29:32;18.70;;;11.80;;
54923;SDS011;40825;52.270;20.984;2023-08-06T05:31:57;17.50;;;11.80;;
54923;SDS011;40825;52.270;20.984;2023-08-06T05:34:22;16.20;;;11.80;;
54923;SDS011;40825;52.270;20.984;2023-08-06T05:36:48;18.40;;;12.50;;
54923;SDS011;40825;52.270;20.984;2023-08-06T05:39:13;15.70;;;10.90;;
54923;SDS011;40825;52.270;20.984;2023-08-06T05:41:39;14.90;;;10.80;;
54923;SDS011;40825;52.270;20.984;2023-08-06T05:44:04;15.20;;;11.10;;
54923;SDS011;40825;52.270;20.984;2023-08-06T05:46:30;18.20;;;10.20;;
54923;SDS011;40825;52.270;20.984;2023-08-06T05:48:55;15.00;;;10.90;;
54923;SDS011;40825;52.270;20.984;2023-08-06T05:51:20;16.30;;;10.90;;
54923;SDS011;40825;52.270;20.984;2023-08-06T05:53:46;13.80;;;9.90;;
54923;SDS011;40825;52.270;20.984;2023-08-06T05:56:12;13.80;;;10.50;;
54923;SDS011;40825;52.270;20.984;2023-08-06T05:58:38;14.60;;;10.20;;
54923;SDS011;40825;52.270;20.984;2023-08-06T06:01:03;14.00;;;10.00;;
54923;SDS011;40825;52.270;20.984;2023-08-06T06:03:28;17.80;;;9.90;;
54923;SDS011;40825;52.270;20.984;2023-08-06T06:05:54;16.00;;;9.50;;
54923;SDS011;40825;52.270;20.984;2023-08-06T06:08:19;14.60;;;9.90;;
54923;SDS011;40825;52.270;20.984;2023-08-06T06:10:45;11.70;;;9.50;;
54923;SDS011;40825;52.270;20.984;2023-08-06T06:13:10;13.00;;;9.40;;
54923;SDS011;40825;52.270;20.984;2023-08-06T06:15:36;13.80;;;9.50;;
54923;SDS011;40825;52.270;20.984;2023-08-06T06:18:01;14.10;;;9.10;;
54923;SDS011;40825;52.270;20.984;2023-08-06T06:20:26;13.30;;;8.20;;
54923;SDS011;40825;52.270;20.984;2023-08-06T06:22:52;12.40;;;9.20;;
54923;SDS011;40825;52.270;20.984;2023-08-06T06:25:17;14.60;;;8.70;;
54923;SDS011;40825;52.270;20.984;2023-08-06T06:27:43;12.90;;;8.80;;
54923;SDS011;40825;52.270;20.984;2023-08-06T06:30:08;12.10;;;9.10;;
54923;SDS011;40825;52.270;20.984;2023-08-06T06:32:34;12.50;;;8.10;;
54923;SDS011;40825;52.270;20.984;2023-08-06T06:35:00;12.20;;;8.60;;
54923;SDS011;40825;52.270;20.984;2023-08-06T06:37:25;10.90;;;8.40;;
54923;SDS011;40825;52.270;20.984;2023-08-06T06:39:51;12.30;;;8.90;;
54923;SDS011;40825;52.270;20.984;2023-08-06T06:42:16;12.40;;;8.00;;
54923;SDS011;40825;52.270;20.984;2023-08-06T06:44:42;13.50;;;8.10;;
54923;SDS011;40825;52.270;20.984;2023-08-06T06:47:07;14.20;;;8.10;;
54923;SDS011;40825;52.270;20.984;2023-08-06T06:49:32;11.10;;;8.10;;
54923;SDS011;40825;52.270;20.984;2023-08-06T06:51:58;10.90;;;7.60;;
54923;SDS011;40825;52.270;20.984;2023-08-06T06:54:23;13.50;;;9.10;;
54923;SDS011;40825;52.270;20.984;2023-08-06T06:56:49;11.40;;;7.50;;
54923;SDS011;40825;52.270;20.984;2023-08-06T06:59:14;13.10;;;7.30;;
54923;SDS011;40825;52.270;20.984;2023-08-06T07:01:40;11.10;;;7.20;;
54923;SDS011;40825;52.270;20.984;2023-08-06T07:04:05;12.00;;;7.50;;
54923;SDS011;40825;52.270;20.984;2023-08-06T07:06:31;10.80;;;7.60;;
54923;SDS011;40825;52.270;20.984;2023-08-06T07:08:57;11.20;;;7.30;;
54923;SDS011;40825;52.270;20.984;2023-08-06T07:11:22;11.30;;;7.00;;
54923;SDS011;40825;52.270;20.984;2023-08-06T07:13:49;11.90;;;7.70;;
54923;SDS011;40825;52.270;20.984;2023-08-06T07:16:20;11.90;;;7.50;;
54923;SDS011;40825;52.270;20.984;2023-08-06T07:18:46;10.20;;;7.20;;
54923;SDS011;40825;52.270;20.984;2023-08-06T07:21:11;13.50;;;7.80;;
54923;SDS011;40825;52.270;20.984;2023-08-06T07:23:37;10.60;;;7.30;;
54923;SDS011;40825;52.270;20.984;2023-08-06T07:26:02;12.60;;;7.80;;
54923;SDS011;40825;52.270;20.984;2023-08-06T07:28:27;13.00;;;7.20;;
54923;SDS011;40825;52.270;20.984;2023-08-06T07:30:53;9.80;;;7.30;;
54923;SDS011;40825;52.270;20.984;2023-08-06T07:33:18;13.50;;;8.10;;
54923;SDS011;40825;52.270;20.984;2023-08-06T07:35:44;10.00;;;7.80;;
54923;SDS011;40825;52.270;20.984;2023-08-06T07:38:09;13.60;;;7.30;;
54923;SDS011;40825;52.270;20.984;2023-08-06T07:40:35;10.60;;;7.20;;
54923;SDS011;40825;52.270;20.984;2023-08-06T07:43:02;11.30;;;7.20;;
54923;SDS011;40825;52.270;20.984;2023-08-06T07:45:32;9.30;;;7.20;;
54923;SDS011;40825;52.270;20.984;2023-08-06T07:47:58;9.10;;;6.70;;
54923;SDS011;40825;52.270;20.984;2023-08-06T07:50:24;12.50;;;7.10;;
54923;SDS011;40825;52.270;20.984;2023-08-06T07:52:49;10.90;;;6.50;;
54923;SDS011;40825;52.270;20.984;2023-08-06T07:55:15;11.10;;;7.30;;
54923;SDS011;40825;52.270;20.984;2023-08-06T07:57:40;10.30;;;7.10;;
54923;SDS011;40825;52.270;20.984;2023-08-06T08:00:06;11.40;;;7.00;;
54923;SDS011;40825;52.270;20.984;2023-08-06T08:02:32;10.70;;;7.20;;
54923;SDS011;40825;52.270;20.984;2023-08-06T08:04:57;11.90;;;7.00;;
54923;SDS011;40825;52.270;20.984;2023-08-06T08:07:23;10.90;;;7.00;;
54923;SDS011;40825;52.270;20.984;2023-08-06T08:09:48;12.00;;;7.00;;
54923;SDS011;40825;52.270;20.984;2023-08-06T08:12:14;10.70;;;7.20;;
54923;SDS011;40825;52.270;20.984;2023-08-06T08:14:40;11.60;;;6.70;;
54923;SDS011;40825;52.270;20.984;2023-08-06T08:17:05;10.80;;;7.00;;
54923;SDS011;40825;52.270;20.984;2023-08-06T08:19:31;11.00;;;7.00;;
54923;SDS011;40825;52.270;20.984;2023-08-06T08:21:57;9.60;;;6.30;;
54923;SDS011;40825;52.270;20.984;2023-08-06T08:24:23;11.80;;;7.80;;
54923;SDS011;40825;52.270;20.984;2023-08-06T08:26:49;12.40;;;7.40;;
54923;SDS011;40825;52.270;20.984;2023-08-06T08:29:16;12.60;;;7.70;;
54923;SDS011;40825;52.270;20.984;2023-08-06T08:31:41;10.10;;;7.40;;
54923;SDS011;40825;52.270;20.984;2023-08-06T08:34:08;10.60;;;7.30;;
54923;SDS011;40825;52.270;20.984;2023-08-06T08:36:34;12.00;;;8.10;;
54923;SDS011;40825;52.270;20.984;2023-08-06T08:38:59;12.00;;;7.20;;
54923;SDS011;40825;52.270;20.984;2023-08-06T08:41:25;10.20;;;7.90;;
54923;SDS011;40825;52.270;20.984;2023-08-06T08:43:56;10.30;;;6.90;;
54923;SDS011;40825;52.270;20.984;2023-08-06T08:46:25;13.20;;;7.20;;
54923;SDS011;40825;52.270;20.984;2023-08-06T08:51:18;9.40;;;6.40;;
54923;SDS011;40825;52.270;20.984;2023-08-06T08:53:45;11.70;;;6.60;;
54923;SDS011;40825;52.270;20.984;2023-08-06T08:56:14;10.80;;;7.10;;
54923;SDS011;40825;52.270;20.984;2023-08-06T08:58:41;11.90;;;6.50;;
54923;SDS011;40825;52.270;20.984;2023-08-06T09:01:07;12.40;;;7.00;;
54923;SDS011;40825;52.270;20.984;2023-08-06T09:03:34;10.50;;;6.30;;
54923;SDS011;40825;52.270;20.984;2023-08-06T09:06:00;11.30;;;7.10;;
54923;SDS011;40825;52.270;20.984;2023-08-06T09:08:29;11.00;;;7.10;;
54923;SDS011;40825;52.270;20.984;2023-08-06T09:11:00;11.00;;;6.50;;
54923;SDS011;40825;52.270;20.984;2023-08-06T09:13:28;12.10;;;7.10;;
54923;SDS011;40825;52.270;20.984;2023-08-06T09:15:53;9.70;;;5.60;;
54923;SDS011;40825;52.270;20.984;2023-08-06T09:18:29;13.40;;;6.50;;
54923;SDS011;40825;52.270;20.984;2023-08-06T09:20:55;10.20;;;6.20;;
54923;SDS011;40825;52.270;20.984;2023-08-06T09:23:26;12.50;;;6.10;;
54923;SDS011;40825;52.270;20.984;2023-08-06T09:25:54;8.70;;;5.40;;
54923;SDS011;40825;52.270;20.984;2023-08-06T09:28:20;11.00;;;6.00;;
54923;SDS011;40825;52.270;20.984;2023-08-06T09:30:46;9.60;;;6.30;;
54923;SDS011;40825;52.270;20.984;2023-08-06T09:33:17;9.30;;;6.40;;
54923;SDS011;40825;52.270;20.984;2023-08-06T09:35:45;9.00;;;6.10;;
54923;SDS011;40825;52.270;20.984;2023-08-06T09:38:11;10.20;;;5.40;;
54923;SDS011;40825;52.270;20.984;2023-08-06T09:40:37;11.80;;;5.80;;
54923;SDS011;40825;52.270;20.984;2023-08-06T09:43:04;8.70;;;6.40;;
54923;SDS011;40825;52.270;20.984;2023-08-06T09:45:31;10.20;;;5.40;;
54923;SDS011;40825;52.270;20.984;2023-08-06T09:47:59;8.50;;;6.70;;
54923;SDS011;40825;52.270;20.984;2023-08-06T09:50:29;8.50;;;5.40;;
54923;SDS011;40825;52.270;20.984;2023-08-06T09:52:57;8.60;;;5.20;;
54923;SDS011;40825;52.270;20.984;2023-08-06T09:55:24;8.60;;;5.30;;
54923;SDS011;40825;52.270;20.984;2023-08-06T09:57:51;9.60;;;5.90;;
54923;SDS011;40825;52.270;20.984;2023-08-06T10:00:17;10.50;;;5.70;;
54923;SDS011;40825;52.270;20.984;2023-08-06T10:02:43;9.70;;;5.60;;
54923;SDS011;40825;52.270;20.984;2023-08-06T10:05:10;9.40;;;6.00;;
54923;SDS011;40825;52.270;20.984;2023-08-06T10:07:36;8.50;;;5.60;;
54923;SDS011;40825;52.270;20.984;2023-08-06T10:10:04;8.50;;;5.20;;
54923;SDS011;40825;52.270;20.984;2023-08-06T10:12:32;8.50;;;5.60;;
54923;SDS011;40825;52.270;20.984;2023-08-06T10:15:09;8.20;;;5.40;;
54923;SDS011;40825;52.270;20.984;2023-08-06T10:17:37;8.80;;;5.30;;
54923;SDS011;40825;52.270;20.984;2023-08-06T10:22:32;9.20;;;5.10;;
54923;SDS011;40825;52.270;20.984;2023-08-06T10:24:59;8.10;;;5.00;;
54923;SDS011;40825;52.270;20.984;2023-08-06T10:32:58;8.50;;;5.00;;
54923;SDS011;40825;52.270;20.984;2023-08-06T10:35:28;10.10;;;5.00;;
54923;SDS011;40825;52.270;20.984;2023-08-06T10:37:58;7.70;;;4.90;;
54923;SDS011;40825;52.270;20.984;2023-08-06T10:40:31;8.40;;;4.90;;
54923;SDS011;40825;52.270;20.984;2023-08-06T10:43:01;10.60;;;4.70;;
54923;SDS011;40825;52.270;20.984;2023-08-06T10:45:29;7.40;;;4.80;;
54923;SDS011;40825;52.270;20.984;2023-08-06T10:47:56;8.50;;;4.60;;
54923;SDS011;40825;52.270;20.984;2023-08-06T10:50:23;8.70;;;5.10;;
54923;SDS011;40825;52.270;20.984;2023-08-06T10:52:49;10.50;;;4.90;;
54923;SDS011;40825;52.270;20.984;2023-08-06T10:55:25;6.50;;;5.00;;
54923;SDS011;40825;52.270;20.984;2023-08-06T10:57:54;8.50;;;5.00;;
54923;SDS011;40825;52.270;20.984;2023-08-06T11:00:21;8.30;;;4.40;;
54923;SDS011;40825;52.270;20.984;2023-08-06T11:02:53;8.50;;;4.80;;
54923;SDS011;40825;52.270;20.984;2023-08-06T11:05:20;7.30;;;4.60;;
54923;SDS011;40825;52.270;20.984;2023-08-06T11:07:46;7.50;;;5.00;;
54923;SDS011;40825;52.270;20.984;2023-08-06T11:10:13;8.50;;;4.80;;
54923;SDS011;40825;52.270;20.984;2023-08-06T11:12:39;7.30;;;4.20;;
54923;SDS011;40825;52.270;20.984;2023-08-06T11:15:05;9.70;;;4.80;;
54923;SDS011;40825;52.270;20.984;2023-08-06T11:17:32;7.60;;;4.50;;
54923;SDS011;40825;52.270;20.984;2023-08-06T11:19:59;6.80;;;4.70;;
54923;SDS011;40825;52.270;20.984;2023-08-06T11:22:28;7.00;;;4.80;;
54923;SDS011;40825;52.270;20.984;2023-08-06T11:24:54;8.00;;;4.50;;
54923;SDS011;40825;52.270;20.984;2023-08-06T11:27:20;6.80;;;4.40;;
54923;SDS011;40825;52.270;20.984;2023-08-06T11:29:45;9.60;;;4.90;;
54923;SDS011;40825;52.270;20.984;2023-08-06T11:32:11;8.60;;;4.90;;
54923;SDS011;40825;52.270;20.984;2023-08-06T11:34:37;7.10;;;4.80;;
54923;SDS011;40825;52.270;20.984;2023-08-06T11:37:03;7.50;;;4.80;;
54923;SDS011;40825;52.270;20.984;2023-08-06T11:39:34;7.50;;;5.20;;
54923;SDS011;40825;52.270;20.984;2023-08-06T11:42:00;8.70;;;4.80;;
54923;SDS011;40825;52.270;20.984;2023-08-06T11:44:29;8.90;;;4.80;;
54923;SDS011;40825;52.270;20.984;2023-08-06T11:46:58;7.50;;;5.50;;
54923;SDS011;40825;52.270;20.984;2023-08-06T11:52:08;7.60;;;4.40;;
54923;SDS011;40825;52.270;20.984;2023-08-06T11:54:59;7.50;;;4.70;;
54923;SDS011;40825;52.270;20.984;2023-08-06T11:57:30;9.40;;;4.50;;
54923;SDS011;40825;52.270;20.984;2023-08-06T12:00:10;6.20;;;4.80;;
54923;SDS011;40825;52.270;20.984;2023-08-06T12:02:38;7.80;;;4.80;;
54923;SDS011;40825;52.270;20.984;2023-08-06T12:07:46;6.80;;;4.60;;
54923;SDS011;40825;52.270;20.984;2023-08-06T12:10:13;8.60;;;5.00;;
54923;SDS011;40825;52.270;20.984;2023-08-06T12:12:40;8.30;;;4.70;;
54923;SDS011;40825;52.270;20.984;2023-08-06T12:15:06;7.00;;;4.70;;
54923;SDS011;40825;52.270;20.984;2023-08-06T12:17:33;6.90;;;4.70;;
54923;SDS011;40825;52.270;20.984;2023-08-06T12:19:59;6.50;;;4.30;;
54923;SDS011;40825;52.270;20.984;2023-08-06T12:22:25;8.20;;;5.10;;
54923;SDS011;40825;52.270;20.984;2023-08-06T12:24:50;8.30;;;5.00;;
54923;SDS011;40825;52.270;20.984;2023-08-06T12:27:16;9.20;;;4.90;;
54923;SDS011;40825;52.270;20.984;2023-08-06T12:29:42;8.70;;;5.10;;
54923;SDS011;40825;52.270;20.984;2023-08-06T12:32:09;9.60;;;5.00;;
54923;SDS011;40825;52.270;20.984;2023-08-06T12:34:38;7.60;;;5.90;;
54923;SDS011;40825;52.270;20.984;2023-08-06T12:37:04;9.50;;;5.00;;
54923;SDS011;40825;52.270;20.984;2023-08-06T12:39:30;8.60;;;5.20;;
54923;SDS011;40825;52.270;20.984;2023-08-06T12:41:56;7.70;;;5.40;;
54923;SDS011;40825;52.270;20.984;2023-08-06T12:44:23;8.90;;;5.30;;
54923;SDS011;40825;52.270;20.984;2023-08-06T12:46:50;7.70;;;4.70;;
54923;SDS011;40825;52.270;20.984;2023-08-06T12:49:17;8.30;;;5.20;;
54923;SDS011;40825;52.270;20.984;2023-08-06T12:51:43;8.70;;;5.90;;
54923;SDS011;40825;52.270;20.984;2023-08-06T12:54:09;8.50;;;5.30;;
54923;SDS011;40825;52.270;20.984;2023-08-06T12:56:34;7.70;;;5.60;;
54923;SDS011;40825;52.270;20.984;2023-08-06T12:59:00;8.10;;;5.70;;
54923;SDS011;40825;52.270;20.984;2023-08-06T13:01:25;8.00;;;6.00;;
54923;SDS011;40825;52.270;20.984;2023-08-06T13:03:51;10.30;;;6.60;;
54923;SDS011;40825;52.270;20.984;2023-08-06T13:06:16;8.10;;;5.50;;
54923;SDS011;40825;52.270;20.984;2023-08-06T13:08:42;8.50;;;5.80;;
54923;SDS011;40825;52.270;20.984;2023-08-06T13:11:07;8.50;;;6.00;;
54923;SDS011;40825;52.270;20.984;2023-08-06T13:13:33;8.20;;;5.20;;
54923;SDS011;40825;52.270;20.984;2023-08-06T13:15:58;8.80;;;5.50;;
54923;SDS011;40825;52.270;20.984;2023-08-06T13:18:24;9.60;;;5.10;;
54923;SDS011;40825;52.270;20.984;2023-08-06T13:20:49;9.30;;;5.10;;
54923;SDS011;40825;52.270;20.984;2023-08-06T13:23:19;11.90;;;5.30;;
54923;SDS011;40825;52.270;20.984;2023-08-06T13:25:45;9.60;;;6.00;;
54923;SDS011;40825;52.270;20.984;2023-08-06T13:28:10;10.20;;;6.20;;
54923;SDS011;40825;52.270;20.984;2023-08-06T13:30:36;7.90;;;5.50;;
54923;SDS011;40825;52.270;20.984;2023-08-06T13:33:07;9.80;;;5.60;;
54923;SDS011;40825;52.270;20.984;2023-08-06T13:35:33;8.00;;;4.60;;
54923;SDS011;40825;52.270;20.984;2023-08-06T13:37:59;7.50;;;5.30;;
54923;SDS011;40825;52.270;20.984;2023-08-06T13:40:24;9.60;;;5.40;;
54923;SDS011;40825;52.270;20.984;2023-08-06T13:42:50;9.60;;;5.50;;
54923;SDS011;40825;52.270;20.984;2023-08-06T13:45:15;7.60;;;5.20;;
54923;SDS011;40825;52.270;20.984;2023-08-06T13:47:41;8.60;;;5.20;;
54923;SDS011;40825;52.270;20.984;2023-08-06T13:50:06;7.80;;;5.10;;
54923;SDS011;40825;52.270;20.984;2023-08-06T13:52:33;7.40;;;5.30;;
54923;SDS011;40825;52.270;20.984;2023-08-06T13:55:00;6.60;;;4.90;;
54923;SDS011;40825;52.270;20.984;2023-08-06T13:57:25;7.70;;;4.30;;
54923;SDS011;40825;52.270;20.984;2023-08-06T13:59:51;8.40;;;5.40;;
54923;SDS011;40825;52.270;20.984;2023-08-06T14:02:16;8.40;;;3.90;;
54923;SDS011;40825;52.270;20.984;2023-08-06T14:04:42;6.70;;;4.30;;
54923;SDS011;40825;52.270;20.984;2023-08-06T14:07:07;6.70;;;4.40;;
54923;SDS011;40825;52.270;20.984;2023-08-06T14:09:33;6.60;;;4.00;;
54923;SDS011;40825;52.270;20.984;2023-08-06T14:11:59;6.40;;;4.90;;
54923;SDS011;40825;52.270;20.984;2023-08-06T14:14:25;7.20;;;4.00;;
54923;SDS011;40825;52.270;20.984;2023-08-06T14:16:54;7.90;;;4.90;;
54923;SDS011;40825;52.270;20.984;2023-08-06T14:19:19;8.30;;;4.20;;
54923;SDS011;40825;52.270;20.984;2023-08-06T14:21:45;5.60;;;4.10;;
54923;SDS011;40825;52.270;20.984;2023-08-06T14:24:11;7.00;;;4.30;;
54923;SDS011;40825;52.270;20.984;2023-08-06T14:26:37;6.80;;;4.00;;
54923;SDS011;40825;52.270;20.984;2023-08-06T14:29:02;6.10;;;4.10;;
54923;SDS011;40825;52.270;20.984;2023-08-06T14:31:28;6.80;;;3.70;;
54923;SDS011;40825;52.270;20.984;2023-08-06T14:33:54;7.30;;;3.80;;
54923;SDS011;40825;52.270;20.984;2023-08-06T14:36:19;6.80;;;3.40;;
54923;SDS011;40825;52.270;20.984;2023-08-06T14:38:45;6.80;;;3.30;;
54923;SDS011;40825;52.270;20.984;2023-08-06T14:41:11;5.90;;;3.80;;